createdAt,value
2022-08-08T00:01:10.226Z,101596.56
2022-08-08T00:03:48.780Z,101595.66
2022-08-08T00:06:34.763Z,101625.63
2022-08-08T00:09:08.066Z,101625.06
2022-08-08T00:11:46.790Z,101627.72
2022-08-08T00:14:57.319Z,101616.44
2022-08-08T00:18:02.117Z,101610.44
2022-08-08T00:20:34.274Z,101617.34
2022-08-08T00:23:10.171Z,101623.81
2022-08-08T00:25:44.902Z,101627.69
2022-08-08T00:28:34.344Z,101630.25
2022-08-08T00:32:29.188Z,101670.56
2022-08-08T00:34:28.673Z,101704.53
2022-08-08T00:37:16.486Z,101710.16
2022-08-08T00:41:10.329Z,101725.97
2022-08-08T00:43:41.614Z,101782.34
2022-08-08T00:46:57.062Z,101806.34
2022-08-08T00:49:59.655Z,101855.84
2022-08-08T00:52:54.036Z,101887.69
2022-08-08T00:55:53.984Z,101874.75
2022-08-08T00:58:54.673Z,101906.44
2022-08-08T01:01:38.306Z,101943.97
2022-08-08T01:04:47.412Z,102007.38
2022-08-08T01:07:57.050Z,102056.81
2022-08-08T01:11:00.363Z,102075.53
2022-08-08T01:14:00.922Z,102063.06
2022-08-08T01:16:56.394Z,102056.88
2022-08-08T01:20:06.606Z,102031.66
2022-08-08T01:24:02.958Z,102031.19
2022-08-08T01:26:39.869Z,102061.91
2022-08-08T01:29:59.760Z,102091.25
2022-08-08T01:33:01.429Z,102082.91
2022-08-08T01:36:14.955Z,102080.06
2022-08-08T01:39:23.421Z,102043.16
2022-08-08T01:41:58.280Z,102046.75
2022-08-08T01:44:43.671Z,102085.09
2022-08-08T01:48:14.949Z,102130.94
2022-08-08T01:50:36.469Z,102196.63
2022-08-08T01:55:16.383Z,102216.09
2022-08-08T01:56:28.325Z,102223.09
2022-08-08T01:59:12.791Z,102223.94
2022-08-08T02:02:02.712Z,102249.75
2022-08-08T02:04:38.294Z,102275.25
2022-08-08T02:07:15.872Z,102276.22
2022-08-08T02:10:29.367Z,102240.34
2022-08-08T02:13:02.734Z,102248.28
2022-08-08T02:15:38.438Z,102272.69
2022-08-08T02:18:13.562Z,102277.84
2022-08-08T02:21:13.182Z,102332.75
2022-08-08T02:23:49.638Z,102353.56
2022-08-08T02:26:29.787Z,102329.50
2022-08-08T02:29:09.257Z,102350.09
2022-08-08T02:32:05.421Z,102351.94
2022-08-08T02:35:10.837Z,102392.78
2022-08-08T02:37:58.187Z,102428.47
2022-08-08T02:40:39.062Z,102443.03
2022-08-08T02:44:37.810Z,102436.91
2022-08-08T02:46:54.811Z,102434.31
2022-08-08T02:49:52.201Z,102441.47
2022-08-08T02:52:50.902Z,102440.28
2022-08-08T02:55:57.780Z,102447.91
2022-08-08T02:59:05.892Z,102444.81
2022-08-08T03:02:30.717Z,102434.31
2022-08-08T03:05:32.876Z,102429.88
2022-08-08T03:08:58.307Z,102435.03
2022-08-08T03:12:13.851Z,102476.38
2022-08-08T03:15:59.450Z,102482.75
2022-08-08T03:18:04.768Z,102490.28
2022-08-08T03:20:51.211Z,102476.16
2022-08-08T03:23:24.313Z,102501.94
2022-08-08T03:26:09.667Z,102503.81
2022-08-08T03:28:44.282Z,102504.69
2022-08-08T03:31:26.718Z,102526.63
2022-08-08T03:34:00.878Z,102585.69
2022-08-08T03:36:31.520Z,102643.63
2022-08-08T03:39:15.342Z,102680.97
2022-08-08T03:42:28.188Z,102678.16
2022-08-08T03:44:38.569Z,102681.97
2022-08-08T03:47:19.556Z,102672.63
2022-08-08T03:49:57.676Z,102650.06
2022-08-08T03:52:34.052Z,102643.53
2022-08-08T03:55:19.985Z,102626.50
2022-08-08T03:58:30.720Z,102603.25
2022-08-08T04:01:01.470Z,102607.91
2022-08-08T04:03:57.376Z,102618.97
2022-08-08T04:06:30.479Z,102628.56
2022-08-08T04:09:07.002Z,102639.97
2022-08-08T04:11:57.784Z,102620.41
2022-08-08T04:14:34.876Z,102627.22
2022-08-08T04:17:07.109Z,102611.78
2022-08-08T04:19:51.900Z,102585.03
2022-08-08T04:22:24.150Z,102579.03
2022-08-08T04:24:54.022Z,102556.38
2022-08-08T04:28:01.862Z,102537.56
2022-08-08T04:30:19.598Z,102514.63
2022-08-08T04:32:50.395Z,102480.75
2022-08-08T04:35:22.912Z,102454.06
2022-08-08T04:37:53.127Z,102447.09
2022-08-08T04:40:23.849Z,102441.75
2022-08-08T04:43:01.147Z,102439.66
2022-08-08T04:45:31.428Z,102416.88
2022-08-08T04:48:03.565Z,102390.97
2022-08-08T04:50:37.695Z,102348.00
2022-08-08T04:53:52.641Z,102336.75
2022-08-08T04:55:58.313Z,102326.38
2022-08-08T04:58:31.693Z,102314.34
2022-08-08T05:01:08.887Z,102274.25
2022-08-08T05:04:07.892Z,102212.97
2022-08-08T05:06:30.347Z,102132.06
2022-08-08T05:09:02.917Z,102078.09
2022-08-08T05:11:38.714Z,101975.66
2022-08-08T05:14:14.058Z,101943.13
2022-08-08T05:16:54.787Z,101895.63
2022-08-08T05:20:08.911Z,101813.41
2022-08-08T05:22:19.778Z,101759.53
2022-08-08T05:24:49.721Z,101752.88
2022-08-08T05:27:19.358Z,101742.31
2022-08-08T05:29:52.228Z,101730.13
2022-08-08T05:32:28.068Z,101765.69
2022-08-08T05:35:04.980Z,101803.28
2022-08-08T05:37:52.541Z,101802.47
2022-08-08T05:40:28.732Z,101805.44
2022-08-08T05:43:02.914Z,101807.69
2022-08-08T05:45:54.989Z,101816.16
2022-08-08T05:48:31.534Z,101807.88
2022-08-08T05:51:14.347Z,101805.97
2022-08-08T05:54:24.290Z,101816.19
2022-08-08T05:56:42.251Z,101821.66
2022-08-08T06:00:00.957Z,101821.81
2022-08-08T06:02:35.543Z,101813.28
2022-08-08T06:05:33.869Z,101769.72
2022-08-08T06:08:02.911Z,101757.22
2022-08-08T06:10:42.190Z,101729.13
2022-08-08T06:13:13.986Z,101710.72
2022-08-08T06:15:55.029Z,101669.59
2022-08-08T06:18:29.998Z,101660.47
2022-08-08T06:21:03.451Z,101646.09
2022-08-08T06:23:52.909Z,101616.53
2022-08-08T06:26:38.962Z,101602.34
2022-08-08T06:29:26.623Z,101597.38
2022-08-08T06:32:15.312Z,101595.44
2022-08-08T06:35:12.172Z,101593.63
2022-08-08T06:37:50.830Z,101587.91
2022-08-08T06:40:21.332Z,101587.28
2022-08-08T06:42:58.592Z,101593.19
2022-08-08T06:45:29.337Z,101590.59
2022-08-08T06:48:01.799Z,101585.44
2022-08-08T06:50:38.337Z,101587.13
2022-08-08T06:53:17.419Z,101585.97
2022-08-08T06:56:00.777Z,101582.13
2022-08-08T06:58:33.322Z,101584.31
2022-08-08T07:01:24.593Z,101588.63
2022-08-08T07:04:40.005Z,101596.97
2022-08-08T07:07:01.809Z,101596.06
2022-08-08T07:09:56.218Z,101591.09
2022-08-08T07:12:33.166Z,101590.63
2022-08-08T07:15:23.029Z,101578.75
2022-08-08T07:18:34.641Z,101587.72
2022-08-08T07:20:50.749Z,101607.47
2022-08-08T07:23:26.405Z,101624.47
2022-08-08T07:25:59.280Z,101634.38
2022-08-08T07:28:31.570Z,101651.94
2022-08-08T07:31:02.045Z,101646.19
2022-08-08T07:33:38.095Z,101649.00
2022-08-08T07:36:22.235Z,101633.00
2022-08-08T07:38:56.659Z,101649.03
2022-08-08T07:41:26.781Z,101641.44
2022-08-08T07:43:58.939Z,101666.03
2022-08-08T07:46:30.516Z,101672.28
2022-08-08T07:49:00.585Z,101693.38
2022-08-08T07:51:52.915Z,101691.84
2022-08-08T07:54:30.885Z,101692.19
2022-08-08T07:57:09.045Z,101720.38
2022-08-08T07:59:45.697Z,101720.53
2022-08-08T08:02:36.961Z,101756.47
2022-08-08T08:05:15.718Z,101780.41
2022-08-08T08:07:46.179Z,101785.16
2022-08-08T08:10:30.663Z,101790.97
2022-08-08T08:13:25.603Z,101753.88
2022-08-08T08:16:12.038Z,101785.56
2022-08-08T08:18:51.690Z,101792.88
2022-08-08T08:21:44.485Z,101797.97
2022-08-08T08:24:12.205Z,101818.13
2022-08-08T08:26:52.509Z,101806.13
2022-08-08T08:29:22.600Z,101781.00
2022-08-08T08:31:53.981Z,101768.09
2022-08-08T08:34:32.252Z,101742.97
2022-08-08T08:37:08.342Z,101756.81
2022-08-08T08:40:01.064Z,101765.63
2022-08-08T08:42:36.466Z,101773.25
2022-08-08T08:45:21.239Z,101787.78
2022-08-08T08:47:54.226Z,101819.22
2022-08-08T08:50:34.064Z,101833.84
2022-08-08T08:53:54.837Z,101801.72
2022-08-08T08:56:01.314Z,101813.91
2022-08-08T08:58:39.831Z,101827.66
2022-08-08T09:01:14.638Z,101805.84
2022-08-08T09:03:50.861Z,101791.38
2022-08-08T09:06:28.701Z,101812.38
2022-08-08T09:09:07.189Z,101833.84
2022-08-08T09:12:01.396Z,101829.97
2022-08-08T09:14:34.777Z,101864.13
2022-08-08T09:17:11.504Z,101901.38
2022-08-08T09:21:59.115Z,101884.09
2022-08-08T09:22:35.166Z,101933.63
2022-08-08T09:25:07.461Z,101942.03
2022-08-08T09:27:56.411Z,101951.53
2022-08-08T09:30:31.098Z,101944.06
2022-08-08T09:33:54.640Z,101935.88
2022-08-08T09:35:55.313Z,101963.84
2022-08-08T09:38:34.098Z,101955.81
2022-08-08T09:41:08.732Z,101942.03
2022-08-08T09:44:06.759Z,101948.13
2022-08-08T09:46:45.140Z,101938.91
2022-08-08T09:49:42.954Z,101935.91
2022-08-08T09:53:00.302Z,101965.41
2022-08-08T09:55:09.912Z,101950.47
2022-08-08T09:57:55.581Z,101959.84
2022-08-08T10:00:43.489Z,101954.34
2022-08-08T10:03:20.812Z,101960.59
2022-08-08T10:05:51.861Z,101967.44
2022-08-08T10:08:21.548Z,101955.28
2022-08-08T10:10:52.053Z,101958.72
2022-08-08T10:13:35.921Z,101972.66
2022-08-08T10:16:09.134Z,101969.50
2022-08-08T10:18:41.471Z,101960.56
2022-08-08T10:21:26.258Z,101941.47
2022-08-08T10:24:01.499Z,101970.56
2022-08-08T10:26:52.054Z,101978.13
2022-08-08T10:29:43.932Z,101986.88
2022-08-08T10:32:37.307Z,101980.28
2022-08-08T10:36:01.990Z,101979.47
2022-08-08T10:38:05.722Z,101967.91
2022-08-08T10:40:40.567Z,101970.72
2022-08-08T10:43:11.190Z,101980.16
2022-08-08T10:45:56.644Z,101977.16
2022-08-08T10:48:56.088Z,101972.53
2022-08-08T10:51:31.488Z,101977.91
2022-08-08T10:54:10.940Z,101998.41
2022-08-08T10:56:43.085Z,102003.28
2022-08-08T10:59:15.893Z,102013.72
2022-08-08T11:01:54.744Z,102018.97
2022-08-08T11:04:29.504Z,102012.91
2022-08-08T11:07:05.191Z,102023.25
2022-08-08T11:09:36.431Z,102050.63
2022-08-08T11:12:14.034Z,102045.16
2022-08-08T11:14:54.409Z,102043.47
2022-08-08T11:17:58.755Z,102035.22
2022-08-08T11:20:21.443Z,102041.63
2022-08-08T11:22:59.071Z,102030.06
2022-08-08T11:25:52.843Z,102044.31
2022-08-08T11:28:30.885Z,102037.44
2022-08-08T11:31:03.962Z,102036.91
2022-08-08T11:33:52.819Z,102038.88
2022-08-08T11:36:27.693Z,102037.72
2022-08-08T11:39:01.226Z,102028.78
2022-08-08T11:41:33.662Z,102027.63
2022-08-08T11:44:05.285Z,102032.97
2022-08-08T11:46:36.996Z,102033.13
2022-08-08T11:49:11.395Z,102043.53
2022-08-08T11:51:49.491Z,102040.34
2022-08-08T11:54:33.654Z,102031.81
2022-08-08T11:57:17.371Z,102023.06
2022-08-08T12:00:01.442Z,102026.41
2022-08-08T12:02:35.884Z,102037.00
2022-08-08T12:05:13.163Z,102036.84
2022-08-08T12:07:51.930Z,102035.38
2022-08-08T12:10:26.623Z,102019.41
2022-08-08T12:13:06.335Z,102025.78
2022-08-08T12:15:42.245Z,102031.44
2022-08-08T12:18:21.350Z,102041.84
2022-08-08T12:20:53.193Z,102040.31
2022-08-08T12:23:42.825Z,102033.41
2022-08-08T12:26:27.188Z,102026.19
2022-08-08T12:29:05.010Z,102023.72
2022-08-08T12:31:39.261Z,102039.81
2022-08-08T12:34:36.081Z,102041.06
2022-08-08T12:37:08.411Z,102038.97
2022-08-08T12:39:56.223Z,102035.78
2022-08-08T12:42:33.484Z,102038.81
2022-08-08T12:45:07.331Z,102027.84
2022-08-08T12:48:09.977Z,102012.16
2022-08-08T12:50:54.674Z,102034.16
2022-08-08T12:53:35.115Z,102043.16
2022-08-08T12:56:19.073Z,102035.88
2022-08-08T12:58:56.171Z,102028.47
2022-08-08T13:01:38.630Z,102028.34
2022-08-08T13:04:18.342Z,102019.16
2022-08-08T13:07:00.848Z,102009.44
2022-08-08T13:09:57.757Z,102002.13
2022-08-08T13:12:32.538Z,101993.97
2022-08-08T13:15:08.154Z,101982.97
2022-08-08T13:18:07.789Z,101975.28
2022-08-08T13:20:28.053Z,101973.25
2022-08-08T13:23:30.201Z,101954.94
2022-08-08T13:25:51.130Z,101958.22
2022-08-08T13:28:33.045Z,101954.59
2022-08-08T13:31:06.800Z,101951.75
2022-08-08T13:33:42.328Z,101961.97
2022-08-08T13:36:13.726Z,101957.34
2022-08-08T13:38:43.662Z,101941.22
2022-08-08T13:41:16.720Z,101939.41
2022-08-08T13:43:49.828Z,101930.63
2022-08-08T13:46:26.318Z,101923.63
2022-08-08T13:50:33.492Z,101925.38
2022-08-08T13:51:58.314Z,101927.78
2022-08-08T13:54:31.374Z,101911.22
2022-08-08T13:57:08.834Z,101903.53
2022-08-08T13:59:44.374Z,101900.94
2022-08-08T14:02:23.266Z,101904.66
2022-08-08T14:05:04.908Z,101922.25
2022-08-08T14:07:52.551Z,101915.16
2022-08-08T14:10:36.725Z,101919.47
2022-08-08T14:13:27.569Z,101918.59
2022-08-08T14:16:07.765Z,101909.78
2022-08-08T14:18:59.460Z,101907.00
2022-08-08T14:21:52.010Z,101911.72
2022-08-08T14:24:33.067Z,101932.72
2022-08-08T14:27:07.363Z,101916.63
2022-08-08T14:29:39.237Z,101935.28
2022-08-08T14:32:16.029Z,101941.19
2022-08-08T14:34:57.309Z,101919.19
2022-08-08T14:37:28.029Z,101946.38
2022-08-08T14:40:13.758Z,101966.22
2022-08-08T14:42:55.145Z,101965.22
2022-08-08T14:45:33.183Z,101972.09
2022-08-08T14:48:17.887Z,101961.38
2022-08-08T14:51:17.536Z,101967.38
2022-08-08T14:53:55.607Z,101963.28
2022-08-08T14:56:26.357Z,101970.91
2022-08-08T14:58:56.336Z,101957.72
2022-08-08T15:01:37.560Z,101963.41
2022-08-08T15:04:10.685Z,101969.06
2022-08-08T15:06:44.510Z,101982.50
2022-08-08T15:09:15.358Z,101993.50
2022-08-08T15:11:53.065Z,101987.50
2022-08-08T15:14:26.384Z,101985.66
2022-08-08T15:16:56.994Z,101980.22
2022-08-08T15:19:28.188Z,101967.84
2022-08-08T15:22:01.066Z,101969.53
2022-08-08T15:24:31.801Z,101961.53
2022-08-08T15:27:04.108Z,101969.47
2022-08-08T15:29:51.671Z,101972.09
2022-08-08T15:32:27.337Z,101971.09
2022-08-08T15:35:00.160Z,101972.63
2022-08-08T15:37:32.441Z,101969.94
2022-08-08T15:40:03.334Z,101966.53
2022-08-08T15:42:33.997Z,101954.34
2022-08-08T15:45:03.927Z,101956.88
2022-08-08T15:47:33.413Z,101945.47
2022-08-08T15:50:03.451Z,101936.06
2022-08-08T15:52:35.694Z,101955.13
2022-08-08T15:55:05.294Z,101942.88
2022-08-08T15:57:35.674Z,101954.50
2022-08-08T16:00:25.802Z,101945.03
2022-08-08T16:02:57.931Z,101939.31
2022-08-08T16:05:35.227Z,101938.44
2022-08-08T16:08:20.388Z,101941.16
2022-08-08T16:13:04.579Z,101955.22
2022-08-08T16:13:45.000Z,101943.88
2022-08-08T16:16:17.930Z,101959.97
2022-08-08T16:18:57.402Z,101967.22
2022-08-08T16:21:31.690Z,101972.59
2022-08-08T16:24:05.354Z,101976.72
2022-08-08T16:26:36.352Z,101965.31
2022-08-08T16:29:10.843Z,101964.38
2022-08-08T16:31:48.352Z,101967.84
2022-08-08T16:34:21.386Z,101958.88
2022-08-08T16:36:52.788Z,101973.09
2022-08-08T16:40:00.792Z,101972.00
2022-08-08T16:42:17.885Z,101972.72
2022-08-08T16:44:55.235Z,101976.94
2022-08-08T16:47:41.491Z,101975.09
2022-08-08T16:50:15.080Z,101965.44
2022-08-08T16:55:18.021Z,101976.97
2022-08-08T16:55:53.772Z,101972.97
2022-08-08T16:58:32.497Z,101982.28
2022-08-08T17:01:05.835Z,101985.91
2022-08-08T17:03:58.409Z,101985.16
2022-08-08T17:06:43.302Z,101985.91
2022-08-08T17:09:15.541Z,101992.16
2022-08-08T17:11:51.595Z,101985.03
2022-08-08T17:14:27.168Z,101987.38
2022-08-08T17:17:02.823Z,101970.63
2022-08-08T17:19:40.900Z,101965.84
2022-08-08T17:22:12.444Z,101976.13
2022-08-08T17:24:42.447Z,101976.00
2022-08-08T17:27:14.642Z,101967.19
2022-08-08T17:29:54.640Z,101958.16
2022-08-08T17:32:28.834Z,101944.88
2022-08-08T17:35:53.705Z,101955.44
2022-08-08T17:37:51.785Z,101944.81
2022-08-08T17:40:23.335Z,101943.84
2022-08-08T17:42:55.528Z,101946.38
2022-08-08T17:45:25.350Z,101929.56
2022-08-08T17:47:56.526Z,101931.25
2022-08-08T17:50:29.306Z,101932.97
2022-08-08T17:52:59.101Z,101927.56
2022-08-08T17:56:06.678Z,101929.84
2022-08-08T17:58:20.802Z,101932.22
2022-08-08T18:00:57.352Z,101937.56
2022-08-08T18:03:27.141Z,101928.41
2022-08-08T18:05:56.730Z,101924.97
2022-08-08T18:08:41.807Z,101924.19
2022-08-08T18:11:15.347Z,101927.53
2022-08-08T18:13:48.677Z,101926.59
2022-08-08T18:16:23.292Z,101919.59
2022-08-08T18:18:56.267Z,101917.75
2022-08-08T18:21:58.735Z,101918.38
2022-08-08T18:24:21.816Z,101903.88
2022-08-08T18:26:55.935Z,101918.66
2022-08-08T18:29:33.798Z,101908.25
2022-08-08T18:32:04.919Z,101930.00
2022-08-08T18:34:35.613Z,101909.81
2022-08-08T18:37:06.596Z,101914.81
2022-08-08T18:39:40.948Z,101925.91
2022-08-08T18:42:16.677Z,101902.06
2022-08-08T18:44:55.939Z,101908.13
2022-08-08T18:47:27.907Z,101900.78
2022-08-08T18:50:00.446Z,101894.56
2022-08-08T18:52:33.961Z,101890.06
2022-08-08T18:55:10.314Z,101893.44
2022-08-08T18:57:44.941Z,101892.16
2022-08-08T19:00:21.375Z,101877.25
2022-08-08T19:02:56.511Z,101871.09
2022-08-08T19:05:30.607Z,101858.06
2022-08-08T19:08:24.969Z,101863.94
2022-08-08T19:10:59.476Z,101855.06
2022-08-08T19:13:53.314Z,101858.34
2022-08-08T19:16:23.665Z,101849.50
2022-08-08T19:19:00.237Z,101842.16
2022-08-08T19:21:33.367Z,101845.97
2022-08-08T19:24:33.954Z,101831.00
2022-08-08T19:27:08.915Z,101827.66
2022-08-08T19:29:45.631Z,101822.81
2022-08-08T19:32:19.474Z,101808.06
2022-08-08T19:34:52.061Z,101806.25
2022-08-08T19:37:42.356Z,101802.69
2022-08-08T19:40:16.043Z,101787.00
2022-08-08T19:42:47.196Z,101791.06
2022-08-08T19:45:59.185Z,101779.28
2022-08-08T19:48:29.175Z,101764.97
2022-08-08T19:50:59.151Z,101763.44
2022-08-08T19:53:52.176Z,101755.28
2022-08-08T19:56:25.749Z,101758.69
2022-08-08T19:59:08.193Z,101759.28
2022-08-08T20:02:02.142Z,101758.34
2022-08-08T20:04:30.607Z,101758.97
2022-08-08T20:07:05.252Z,101749.25
2022-08-08T20:09:56.372Z,101756.22
2022-08-08T20:12:32.172Z,101755.97
2022-08-08T20:15:16.624Z,101756.56
2022-08-08T20:17:48.123Z,101750.28
2022-08-08T20:20:22.416Z,101750.00
2022-08-08T20:22:56.097Z,101755.81
2022-08-08T20:25:29.698Z,101754.91
2022-08-08T20:28:06.969Z,101750.69
2022-08-08T20:30:55.730Z,101756.84
2022-08-08T20:36:07.713Z,101750.78
2022-08-08T20:38:39.520Z,101745.44
2022-08-08T20:41:17.845Z,101747.19
2022-08-08T20:43:50.130Z,101738.41
2022-08-08T20:46:21.314Z,101744.00
2022-08-08T20:48:58.557Z,101742.25
2022-08-08T20:51:33.080Z,101743.50
2022-08-08T20:54:14.023Z,101743.13
2022-08-08T20:57:04.723Z,101747.97
2022-08-08T20:59:41.472Z,101744.50
2022-08-08T21:02:12.473Z,101753.50
2022-08-08T21:04:43.550Z,101759.59
2022-08-08T21:07:46.983Z,101758.97
2022-08-08T21:10:12.601Z,101765.13
2022-08-08T21:12:45.953Z,101761.16
2022-08-08T21:16:05.717Z,101757.41
2022-08-08T21:18:06.322Z,101762.41
2022-08-08T21:20:35.800Z,101767.59
2022-08-08T21:23:13.298Z,101759.84
2022-08-08T21:25:53.287Z,101759.91
2022-08-08T21:28:35.449Z,101758.72
2022-08-08T21:31:23.312Z,101757.72
2022-08-08T21:33:53.477Z,101753.50
2022-08-08T21:36:28.492Z,101753.09
2022-08-08T21:39:04.370Z,101753.97
2022-08-08T21:41:43.326Z,101761.63
2022-08-08T21:44:21.245Z,101761.78
2022-08-08T21:48:05.919Z,101758.84
2022-08-08T21:49:40.252Z,101753.81
2022-08-08T21:54:23.062Z,101745.72
2022-08-08T21:55:22.495Z,101751.91
2022-08-08T21:57:57.467Z,101745.50
2022-08-08T22:00:40.638Z,101748.72
2022-08-08T22:03:11.192Z,101752.53
2022-08-08T22:05:48.393Z,101764.47
2022-08-08T22:08:24.060Z,101773.13
2022-08-08T22:10:56.782Z,101767.78
2022-08-08T22:13:27.201Z,101764.47
2022-08-08T22:16:17.091Z,101772.72
2022-08-08T22:18:53.579Z,101777.09
2022-08-08T22:21:23.709Z,101792.03
2022-08-08T22:24:03.803Z,101786.94
2022-08-08T22:26:36.173Z,101776.78
2022-08-08T22:29:59.017Z,101781.41
2022-08-08T22:32:15.054Z,101780.53
2022-08-08T22:34:44.530Z,101784.50
2022-08-08T22:37:49.260Z,101789.38
2022-08-08T22:40:16.446Z,101779.25
2022-08-08T22:42:49.298Z,101786.41
2022-08-08T22:45:19.426Z,101784.31
2022-08-08T22:47:52.009Z,101787.91
2022-08-08T22:50:27.348Z,101784.91
2022-08-08T22:54:30.026Z,101783.06
2022-08-08T22:55:59.078Z,101777.22
2022-08-08T22:58:35.366Z,101777.47
2022-08-08T23:01:16.558Z,101777.47
2022-08-08T23:03:58.505Z,101779.84
2022-08-08T23:06:28.678Z,101771.97
2022-08-08T23:09:00.178Z,101773.28
2022-08-08T23:12:18.394Z,101784.03
2022-08-08T23:14:25.607Z,101786.88
2022-08-08T23:16:59.653Z,101795.63
2022-08-08T23:19:32.739Z,101802.66
2022-08-08T23:22:04.321Z,101810.97
2022-08-08T23:24:36.681Z,101816.25
2022-08-08T23:27:17.245Z,101832.47
2022-08-08T23:30:04.460Z,101842.19
2022-08-08T23:32:34.246Z,101860.66
2022-08-08T23:35:08.187Z,101881.75
2022-08-08T23:38:02.737Z,101895.03
2022-08-08T23:40:27.349Z,101922.47
2022-08-08T23:42:56.886Z,101943.06
2022-08-08T23:49:05.066Z,101949.06
2022-08-08T23:49:07.123Z,101977.75
2022-08-08T23:51:12.881Z,102012.66
2022-08-08T23:54:39.522Z,102036.31
2022-08-08T23:56:49.605Z,102052.59
2022-08-08T23:59:20.351Z,102032.75
